createdAt,value
2018-12-06T00:01:12.341Z,6.90
2018-12-06T00:06:05.676Z,6.90
2018-12-06T00:10:58.914Z,6.90
2018-12-06T00:15:52.146Z,6.90
2018-12-06T00:20:45.425Z,6.90
2018-12-06T00:25:38.660Z,6.90
2018-12-06T00:30:40.312Z,6.90
2018-12-06T00:35:33.684Z,7.00
2018-12-06T00:40:26.905Z,7.00
2018-12-06T00:45:20.125Z,7.00
2018-12-06T00:50:13.506Z,7.10
2018-12-06T00:55:06.717Z,7.10
2018-12-06T00:59:59.915Z,7.10
2018-12-06T01:04:53.191Z,7.10
2018-12-06T01:09:46.598Z,7.00
2018-12-06T01:14:40.803Z,7.10
2018-12-06T01:19:34.083Z,7.10
2018-12-06T01:24:27.391Z,7.00
2018-12-06T01:29:20.727Z,7.10
2018-12-06T01:34:14.084Z,7.10
2018-12-06T01:39:07.528Z,7.10
2018-12-06T01:44:02.209Z,7.10
2018-12-06T01:48:55.504Z,7.10
2018-12-06T01:53:48.827Z,7.20
2018-12-06T01:58:42.693Z,7.20
2018-12-06T02:03:35.917Z,7.30
2018-12-06T02:08:29.209Z,7.30
2018-12-06T02:13:22.423Z,7.30
2018-12-06T02:18:15.650Z,7.30
2018-12-06T02:23:08.853Z,7.30
2018-12-06T02:28:03.371Z,7.40
2018-12-06T02:32:56.774Z,7.40
2018-12-06T02:37:50.257Z,7.50
2018-12-06T02:42:43.630Z,7.50
2018-12-06T02:47:36.965Z,7.50
2018-12-06T02:52:30.219Z,7.50
2018-12-06T02:57:23.449Z,7.50
2018-12-06T03:02:16.780Z,7.60
2018-12-06T03:07:10.022Z,7.60
2018-12-06T03:12:03.274Z,7.70
2018-12-06T03:16:56.505Z,7.70
2018-12-06T03:21:49.774Z,7.70
2018-12-06T03:26:42.996Z,7.70
2018-12-06T03:31:36.225Z,7.80
2018-12-06T03:36:29.478Z,7.80
2018-12-06T03:41:22.700Z,7.90
2018-12-06T03:46:15.928Z,7.90
2018-12-06T03:51:09.241Z,7.90
2018-12-06T03:56:02.587Z,8.00
2018-12-06T04:00:55.822Z,8.00
2018-12-06T04:05:49.053Z,8.00
2018-12-06T04:10:42.286Z,8.10
2018-12-06T04:15:35.758Z,8.10
2018-12-06T04:20:29.110Z,8.20
2018-12-06T04:25:22.349Z,8.30
2018-12-06T04:30:15.689Z,8.20
2018-12-06T04:35:08.934Z,8.20
2018-12-06T04:40:02.210Z,8.30
2018-12-06T04:44:55.459Z,8.40
2018-12-06T04:49:48.688Z,8.30
2018-12-06T04:54:41.920Z,8.40
2018-12-06T04:59:35.171Z,8.40
2018-12-06T05:04:28.457Z,8.40
2018-12-06T05:09:22.012Z,8.40
2018-12-06T05:14:15.286Z,8.50
2018-12-06T05:19:08.881Z,8.50
2018-12-06T05:24:02.122Z,8.50
2018-12-06T05:28:55.313Z,8.50
2018-12-06T05:33:48.530Z,8.50
2018-12-06T05:38:41.870Z,8.60
2018-12-06T05:43:35.139Z,8.60
2018-12-06T05:48:28.323Z,8.60
2018-12-06T05:53:21.536Z,8.70
2018-12-06T05:58:14.762Z,8.70
2018-12-06T06:03:08.018Z,8.80
2018-12-06T06:08:01.211Z,8.80
2018-12-06T06:12:54.513Z,8.80
2018-12-06T06:17:47.727Z,8.80
2018-12-06T06:22:41.007Z,8.90
2018-12-06T06:27:34.283Z,8.90
2018-12-06T06:32:27.604Z,8.90
2018-12-06T06:37:20.834Z,8.90
2018-12-06T06:42:14.074Z,8.80
2018-12-06T06:47:07.339Z,8.80
2018-12-06T06:52:00.662Z,8.80
2018-12-06T06:56:53.892Z,8.80
2018-12-06T07:01:47.467Z,8.90
2018-12-06T07:06:40.695Z,8.90
2018-12-06T07:11:34.132Z,8.90
2018-12-06T07:16:27.390Z,9.00
2018-12-06T07:21:20.587Z,9.00
2018-12-06T07:26:13.980Z,9.00
2018-12-06T07:31:07.281Z,9.00
2018-12-06T07:36:00.485Z,9.10
2018-12-06T07:40:53.719Z,9.10
2018-12-06T07:45:47.153Z,8.40
2018-12-06T07:50:40.453Z,9.10
2018-12-06T07:55:33.766Z,9.20
2018-12-06T08:00:27.945Z,9.20
2018-12-06T08:05:21.169Z,9.30
2018-12-06T08:10:14.542Z,9.30
2018-12-06T08:15:08.630Z,9.40
2018-12-06T08:20:02.584Z,9.50
2018-12-06T08:24:55.779Z,9.60
2018-12-06T08:29:49.032Z,9.80
2018-12-06T08:34:42.253Z,9.90
2018-12-06T08:39:35.484Z,10.00
2018-12-06T08:44:28.733Z,10.30
2018-12-06T08:49:22.114Z,10.50
2018-12-06T08:54:15.359Z,10.60
2018-12-06T08:59:08.597Z,10.80
2018-12-06T09:04:01.961Z,10.80
2018-12-06T09:08:55.855Z,10.90
2018-12-06T09:13:49.033Z,11.00
2018-12-06T09:18:42.247Z,11.10
2018-12-06T09:23:35.467Z,11.30
2018-12-06T09:28:28.677Z,11.50
2018-12-06T09:33:21.883Z,11.50
2018-12-06T09:38:15.122Z,11.60
2018-12-06T09:43:08.484Z,11.80
2018-12-06T09:48:01.830Z,12.00
2018-12-06T09:52:55.068Z,12.20
2018-12-06T09:57:48.317Z,12.50
2018-12-06T10:02:41.686Z,12.50
2018-12-06T10:07:34.946Z,12.60
2018-12-06T10:12:28.868Z,12.70
2018-12-06T10:17:22.174Z,12.70
2018-12-06T10:22:15.387Z,12.80
2018-12-06T10:27:08.651Z,13.00
2018-12-06T10:32:01.945Z,13.10
2018-12-06T10:36:55.153Z,13.30
2018-12-06T10:41:48.381Z,13.50
2018-12-06T10:46:41.692Z,13.60
2018-12-06T10:51:42.559Z,13.60
2018-12-06T10:56:35.903Z,13.50
2018-12-06T11:02:32.500Z,13.50
2018-12-06T11:07:25.963Z,13.50
2018-12-06T11:12:19.150Z,13.50
2018-12-06T11:17:12.339Z,13.40
2018-12-06T11:22:05.589Z,13.50
2018-12-06T11:26:58.783Z,13.70
2018-12-06T11:31:52.445Z,13.90
2018-12-06T11:36:45.663Z,14.00
2018-12-06T11:41:42.963Z,14.10
2018-12-06T11:46:34.214Z,14.20
2018-12-06T11:51:29.208Z,14.30
2018-12-06T11:56:22.921Z,14.30
2018-12-06T12:01:16.172Z,14.30
2018-12-06T12:06:09.374Z,14.20
2018-12-06T12:11:02.618Z,14.20
2018-12-06T12:15:55.822Z,14.20
2018-12-06T12:20:49.045Z,14.20
2018-12-06T12:25:42.281Z,14.30
2018-12-06T12:30:35.525Z,14.30
2018-12-06T12:35:28.744Z,14.30
2018-12-06T12:40:21.955Z,14.30
2018-12-06T12:45:15.187Z,14.20
2018-12-06T12:50:09.332Z,14.20
2018-12-06T12:55:02.638Z,14.30
2018-12-06T12:59:55.827Z,14.20
2018-12-06T13:04:49.027Z,14.20
2018-12-06T13:09:42.297Z,14.00
2018-12-06T13:14:35.507Z,14.10
2018-12-06T13:19:28.691Z,14.20
2018-12-06T13:24:21.929Z,14.00
2018-12-06T13:29:15.167Z,14.00
2018-12-06T13:34:08.473Z,14.00
2018-12-06T13:39:01.669Z,14.00
2018-12-06T13:43:54.973Z,13.90
2018-12-06T13:48:48.327Z,13.90
2018-12-06T13:53:41.582Z,13.90
2018-12-06T13:58:34.818Z,13.90
2018-12-06T14:03:29.054Z,13.80
2018-12-06T14:08:22.297Z,13.80
2018-12-06T14:13:15.498Z,13.70
2018-12-06T14:18:08.694Z,13.50
2018-12-06T14:23:01.905Z,13.50
2018-12-06T14:27:55.109Z,13.40
2018-12-06T14:32:48.317Z,13.40
2018-12-06T14:37:41.544Z,13.40
2018-12-06T14:42:34.793Z,13.30
2018-12-06T14:47:28.021Z,13.30
2018-12-06T14:52:21.224Z,13.20
2018-12-06T14:57:14.470Z,13.10
2018-12-06T15:02:07.770Z,13.10
2018-12-06T15:07:01.016Z,13.20
2018-12-06T15:11:54.254Z,13.20
2018-12-06T15:22:10.278Z,13.10
2018-12-06T15:27:03.541Z,13.10
2018-12-06T15:31:56.790Z,13.10
2018-12-06T15:36:50.029Z,13.10
2018-12-06T15:41:43.259Z,13.10
2018-12-06T15:46:36.523Z,13.10
2018-12-06T15:51:29.742Z,13.10
2018-12-06T15:56:22.966Z,13.10
2018-12-06T16:01:16.220Z,13.10
2018-12-06T16:06:09.488Z,13.10
2018-12-06T16:11:02.700Z,13.10
2018-12-06T16:15:55.921Z,13.10
2018-12-06T16:20:49.160Z,13.20
2018-12-06T16:25:42.384Z,13.20
2018-12-06T16:30:35.643Z,13.20
2018-12-06T16:35:28.962Z,13.20
2018-12-06T16:40:22.200Z,13.20
2018-12-06T16:45:15.482Z,13.20
2018-12-06T16:50:09.675Z,13.20
2018-12-06T16:55:03.274Z,13.30
2018-12-06T16:59:56.491Z,13.30
2018-12-06T17:04:49.705Z,13.20
2018-12-06T17:09:42.931Z,13.20
2018-12-06T17:14:36.150Z,13.20
2018-12-06T17:19:29.378Z,13.20
2018-12-06T17:24:22.628Z,13.20
2018-12-06T17:29:15.866Z,13.20
2018-12-06T17:34:09.102Z,13.20
2018-12-06T17:39:04.273Z,13.20
2018-12-06T17:43:57.965Z,13.20
2018-12-06T17:48:52.009Z,13.20
2018-12-06T17:53:52.017Z,13.20
2018-12-06T17:58:40.520Z,13.20
2018-12-06T18:03:33.727Z,13.10
2018-12-06T18:08:27.198Z,13.10
2018-12-06T18:13:20.425Z,13.10
2018-12-06T18:18:13.780Z,13.00
2018-12-06T18:23:07.055Z,13.10
2018-12-06T18:28:00.346Z,13.10
2018-12-06T18:32:53.601Z,13.10
2018-12-06T18:37:46.809Z,13.00
2018-12-06T18:42:40.060Z,13.00
2018-12-06T18:47:33.322Z,13.10
2018-12-06T18:52:26.583Z,13.00
2018-12-06T18:57:19.845Z,13.10
2018-12-06T19:02:13.096Z,13.00
2018-12-06T19:07:06.353Z,13.00
2018-12-06T19:11:59.588Z,13.00
2018-12-06T19:16:53.129Z,13.00
2018-12-06T19:21:46.480Z,13.00
2018-12-06T19:26:39.781Z,13.10
2018-12-06T19:31:33.001Z,13.10
2018-12-06T19:36:26.535Z,13.10
2018-12-06T19:41:19.748Z,13.10
2018-12-06T19:46:12.953Z,13.10
2018-12-06T19:51:06.180Z,13.10
2018-12-06T19:55:59.527Z,13.10
2018-12-06T20:00:52.885Z,13.20
2018-12-06T20:05:46.122Z,13.10
2018-12-06T20:10:39.396Z,13.20
2018-12-06T20:15:32.601Z,13.20
2018-12-06T20:20:25.926Z,13.20
2018-12-06T20:25:19.174Z,13.20
2018-12-06T20:30:12.390Z,13.20
2018-12-06T20:35:05.922Z,13.20
2018-12-06T20:39:59.143Z,13.20
2018-12-06T20:44:52.396Z,13.30
2018-12-06T20:49:45.622Z,13.30
2018-12-06T20:54:39.668Z,13.30
2018-12-06T20:59:33.064Z,13.40
2018-12-06T21:04:26.338Z,13.30
2018-12-06T21:09:19.567Z,13.50
2018-12-06T21:14:13.066Z,13.40
2018-12-06T21:19:06.395Z,13.40
2018-12-06T21:24:00.818Z,13.40
2018-12-06T21:28:54.114Z,13.40
2018-12-06T21:33:47.304Z,13.40
2018-12-06T21:38:40.555Z,13.40
2018-12-06T21:43:34.029Z,13.30
2018-12-06T21:48:27.217Z,13.40
2018-12-06T21:53:20.472Z,13.40
2018-12-06T21:58:13.779Z,13.40
2018-12-06T22:03:06.988Z,13.40
2018-12-06T22:08:00.223Z,13.50
2018-12-06T22:12:53.461Z,13.40
2018-12-06T22:17:46.694Z,13.40
2018-12-06T22:22:39.929Z,13.30
2018-12-06T22:27:33.147Z,13.20
2018-12-06T22:32:26.449Z,13.20
2018-12-06T22:37:19.748Z,13.30
2018-12-06T22:42:12.979Z,13.30
2018-12-06T22:47:06.235Z,13.30
2018-12-06T22:51:59.417Z,13.20
2018-12-06T22:56:52.632Z,13.30
2018-12-06T23:01:45.980Z,13.40
2018-12-06T23:06:39.206Z,13.30
2018-12-06T23:11:32.449Z,13.30
2018-12-06T23:16:25.654Z,13.30
2018-12-06T23:21:18.887Z,13.40
2018-12-06T23:26:12.169Z,13.40
2018-12-06T23:31:05.408Z,13.40
2018-12-06T23:35:58.608Z,13.20
2018-12-06T23:40:51.820Z,13.10
2018-12-06T23:45:45.027Z,13.10
2018-12-06T23:50:38.290Z,13.10
2018-12-06T23:55:31.669Z,13.20
